sensor_id;sensor_type;location;lat;lon;timestamp;pressure;altitude;pressure_sealevel;temperature;humidity
56894;BME280;43392;50.078;13.704;2023-06-19T00:02:26;96852.53;;;17.31;68.54
56894;BME280;43392;50.078;13.704;2023-06-19T00:04:52;96851.41;;;17.23;68.88
56894;BME280;43392;50.078;13.704;2023-06-19T00:07:19;96850.00;;;17.17;69.52
56894;BME280;43392;50.078;13.704;2023-06-19T00:09:47;96852.88;;;17.12;69.73
56894;BME280;43392;50.078;13.704;2023-06-19T00:12:15;96849.19;;;17.08;69.86
56894;BME280;43392;50.078;13.704;2023-06-19T00:14:41;96844.72;;;17.03;70.21
56894;BME280;43392;50.078;13.704;2023-06-19T00:17:08;96854.63;;;16.99;70.66
56894;BME280;43392;50.078;13.704;2023-06-19T00:19:35;96847.44;;;16.95;70.94
56894;BME280;43392;50.078;13.704;2023-06-19T00:22:02;96847.28;;;16.91;71.09
56894;BME280;43392;50.078;13.704;2023-06-19T00:24:29;96840.91;;;16.87;71.11
56894;BME280;43392;50.078;13.704;2023-06-19T00:26:55;96849.38;;;16.86;71.05
56894;BME280;43392;50.078;13.704;2023-06-19T00:29:29;96841.41;;;16.81;71.07
56894;BME280;43392;50.078;13.704;2023-06-19T00:31:55;96840.91;;;16.87;70.94
56894;BME280;43392;50.078;13.704;2023-06-19T00:34:22;96837.06;;;16.88;70.78
56894;BME280;43392;50.078;13.704;2023-06-19T00:36:49;96826.91;;;16.85;71.43
56894;BME280;43392;50.078;13.704;2023-06-19T00:39:16;96839.00;;;16.79;71.20
56894;BME280;43392;50.078;13.704;2023-06-19T00:41:43;96836.75;;;16.73;71.21
56894;BME280;43392;50.078;13.704;2023-06-19T00:44:13;96826.09;;;16.68;71.36
56894;BME280;43392;50.078;13.704;2023-06-19T00:46:41;96826.41;;;16.66;71.10
56894;BME280;43392;50.078;13.704;2023-06-19T00:49:08;96829.13;;;16.66;71.10
56894;BME280;43392;50.078;13.704;2023-06-19T00:51:35;96826.88;;;16.68;70.79
56894;BME280;43392;50.078;13.704;2023-06-19T00:54:02;96823.22;;;16.73;70.90
56894;BME280;43392;50.078;13.704;2023-06-19T00:56:28;96818.75;;;16.68;70.91
56894;BME280;43392;50.078;13.704;2023-06-19T00:58:55;96815.41;;;16.63;71.11
56894;BME280;43392;50.078;13.704;2023-06-19T01:01:22;96817.47;;;16.57;71.33
56894;BME280;43392;50.078;13.704;2023-06-19T01:03:50;96809.94;;;16.45;71.72
56894;BME280;43392;50.078;13.704;2023-06-19T01:06:25;96817.25;;;16.45;71.38
56894;BME280;43392;50.078;13.704;2023-06-19T01:08:58;96818.88;;;16.46;72.02
56894;BME280;43392;50.078;13.704;2023-06-19T01:11:32;96806.94;;;16.47;71.98
56894;BME280;43392;50.078;13.704;2023-06-19T01:14:05;96810.28;;;16.52;71.46
56894;BME280;43392;50.078;13.704;2023-06-19T01:16:33;96808.38;;;16.53;71.42
56894;BME280;43392;50.078;13.704;2023-06-19T01:19:03;96810.28;;;16.52;71.58
56894;BME280;43392;50.078;13.704;2023-06-19T01:21:30;96808.84;;;16.46;72.02
56894;BME280;43392;50.078;13.704;2023-06-19T01:23:58;96810.72;;;16.37;72.26
56894;BME280;43392;50.078;13.704;2023-06-19T01:26:25;96807.53;;;16.27;72.58
56894;BME280;43392;50.078;13.704;2023-06-19T01:28:53;96802.06;;;16.10;73.00
56894;BME280;43392;50.078;13.704;2023-06-19T01:31:27;96810.47;;;16.00;73.55
56894;BME280;43392;50.078;13.704;2023-06-19T01:33:55;96801.53;;;15.90;74.11
56894;BME280;43392;50.078;13.704;2023-06-19T01:36:23;96807.56;;;15.87;73.89
56894;BME280;43392;50.078;13.704;2023-06-19T01:38:51;96808.19;;;15.84;74.04
56894;BME280;43392;50.078;13.704;2023-06-19T01:41:22;96809.31;;;15.83;73.73
56894;BME280;43392;50.078;13.704;2023-06-19T01:43:51;96799.44;;;15.79;74.12
56894;BME280;43392;50.078;13.704;2023-06-19T01:46:17;96802.91;;;15.79;74.26
56894;BME280;43392;50.078;13.704;2023-06-19T01:48:44;96801.81;;;15.80;74.12
56894;BME280;43392;50.078;13.704;2023-06-19T01:51:11;96801.00;;;15.80;74.03
56894;BME280;43392;50.078;13.704;2023-06-19T01:53:37;96798.63;;;15.78;74.26
56894;BME280;43392;50.078;13.704;2023-06-19T01:56:04;96800.84;;;15.76;74.29
56894;BME280;43392;50.078;13.704;2023-06-19T01:58:32;96802.25;;;15.74;74.30
56894;BME280;43392;50.078;13.704;2023-06-19T02:00:59;96807.66;;;15.74;74.33
56894;BME280;43392;50.078;13.704;2023-06-19T02:03:25;96809.56;;;15.73;74.52
56894;BME280;43392;50.078;13.704;2023-06-19T02:05:52;96806.38;;;15.71;74.14
56894;BME280;43392;50.078;13.704;2023-06-19T02:08:18;96809.09;;;15.71;74.29
56894;BME280;43392;50.078;13.704;2023-06-19T02:10:45;96802.56;;;15.72;74.04
56894;BME280;43392;50.078;13.704;2023-06-19T02:13:12;96808.44;;;15.74;73.80
56894;BME280;43392;50.078;13.704;2023-06-19T02:15:40;96797.78;;;15.69;73.88
56894;BME280;43392;50.078;13.704;2023-06-19T02:18:08;96809.09;;;15.71;73.83
56894;BME280;43392;50.078;13.704;2023-06-19T02:20:35;96802.88;;;15.71;73.47
56894;BME280;43392;50.078;13.704;2023-06-19T02:23:01;96811.00;;;15.71;73.42
56894;BME280;43392;50.078;13.704;2023-06-19T02:25:28;96808.75;;;15.73;73.36
56894;BME280;43392;50.078;13.704;2023-06-19T02:27:55;96809.56;;;15.73;73.64
56894;BME280;43392;50.078;13.704;2023-06-19T02:30:22;96811.66;;;15.76;73.34
56894;BME280;43392;50.078;13.704;2023-06-19T02:32:50;96810.06;;;15.75;73.31
56894;BME280;43392;50.078;13.704;2023-06-19T02:35:17;96809.91;;;15.72;73.61
56894;BME280;43392;50.078;13.704;2023-06-19T02:37:43;96813.34;;;15.64;73.42
56894;BME280;43392;50.078;13.704;2023-06-19T02:40:12;96802.47;;;15.55;73.81
56894;BME280;43392;50.078;13.704;2023-06-19T02:42:39;96805.19;;;15.55;73.38
56894;BME280;43392;50.078;13.704;2023-06-19T02:45:07;96797.38;;;15.54;73.56
56894;BME280;43392;50.078;13.704;2023-06-19T02:47:33;96799.28;;;15.53;73.75
56894;BME280;43392;50.078;13.704;2023-06-19T02:50:03;96813.28;;;15.55;73.83
56894;BME280;43392;50.078;13.704;2023-06-19T02:52:30;96813.13;;;15.52;72.98
56894;BME280;43392;50.078;13.704;2023-06-19T02:54:57;96815.84;;;15.38;73.17
56894;BME280;43392;50.078;13.704;2023-06-19T02:57:24;96819.75;;;15.23;74.67
56894;BME280;43392;50.078;13.704;2023-06-19T02:59:51;96805.75;;;15.21;74.66
56894;BME280;43392;50.078;13.704;2023-06-19T03:02:18;96809.75;;;15.24;75.14
56894;BME280;43392;50.078;13.704;2023-06-19T03:04:44;96811.03;;;15.26;75.20
56894;BME280;43392;50.078;13.704;2023-06-19T03:07:12;96806.44;;;15.27;74.58
56894;BME280;43392;50.078;13.704;2023-06-19T03:09:40;96808.53;;;15.30;74.83
56894;BME280;43392;50.078;13.704;2023-06-19T03:12:07;96813.47;;;15.37;74.89
56894;BME280;43392;50.078;13.704;2023-06-19T03:14:35;96813.34;;;15.42;74.84
56894;BME280;43392;50.078;13.704;2023-06-19T03:17:02;96812.25;;;15.43;74.61
56894;BME280;43392;50.078;13.704;2023-06-19T03:19:29;96813.84;;;15.44;74.23
56894;BME280;43392;50.078;13.704;2023-06-19T03:21:55;96813.56;;;15.45;74.58
56894;BME280;43392;50.078;13.704;2023-06-19T03:24:23;96810.31;;;15.43;74.57
56894;BME280;43392;50.078;13.704;2023-06-19T03:26:51;96808.25;;;15.40;74.55
56894;BME280;43392;50.078;13.704;2023-06-19T03:29:17;96800.09;;;15.32;74.07
56894;BME280;43392;50.078;13.704;2023-06-19T03:31:44;96801.88;;;15.36;74.32
56894;BME280;43392;50.078;13.704;2023-06-19T03:34:11;96805.38;;;15.37;74.55
56894;BME280;43392;50.078;13.704;2023-06-19T03:36:37;96804.75;;;15.40;73.78
56894;BME280;43392;50.078;13.704;2023-06-19T03:39:04;96816.28;;;15.45;73.79
56894;BME280;43392;50.078;13.704;2023-06-19T03:41:32;96799.13;;;15.50;73.43
56894;BME280;43392;50.078;13.704;2023-06-19T03:43:59;96802.00;;;15.53;73.69
56894;BME280;43392;50.078;13.704;2023-06-19T03:46:25;96805.97;;;15.56;73.94
56894;BME280;43392;50.078;13.704;2023-06-19T03:48:52;96806.03;;;15.64;73.54
56894;BME280;43392;50.078;13.704;2023-06-19T03:51:19;96807.47;;;15.70;73.50
56894;BME280;43392;50.078;13.704;2023-06-19T03:53:45;96800.97;;;15.71;73.33
56894;BME280;43392;50.078;13.704;2023-06-19T03:56:12;96807.47;;;15.70;72.97
56894;BME280;43392;50.078;13.704;2023-06-19T03:58:40;96814.97;;;15.73;73.25
56894;BME280;43392;50.078;13.704;2023-06-19T04:01:06;96826.13;;;15.72;73.56
56894;BME280;43392;50.078;13.704;2023-06-19T04:03:33;96816.22;;;15.67;74.03
56894;BME280;43392;50.078;13.704;2023-06-19T04:05:59;96831.13;;;15.65;74.92
56894;BME280;43392;50.078;13.704;2023-06-19T04:08:26;96824.63;;;15.66;74.96
56894;BME280;43392;50.078;13.704;2023-06-19T04:10:53;96833.56;;;15.66;74.74
56894;BME280;43392;50.078;13.704;2023-06-19T04:13:19;96824.72;;;15.30;75.01
56894;BME280;43392;50.078;13.704;2023-06-19T04:15:47;96835.53;;;15.08;75.93
56894;BME280;43392;50.078;13.704;2023-06-19T04:18:14;96831.75;;;15.09;76.45
56894;BME280;43392;50.078;13.704;2023-06-19T04:20:40;96832.28;;;15.19;76.30
56894;BME280;43392;50.078;13.704;2023-06-19T04:23:07;96832.53;;;15.32;76.24
56894;BME280;43392;50.078;13.704;2023-06-19T04:25:34;96828.28;;;15.39;75.37
56894;BME280;43392;50.078;13.704;2023-06-19T04:28:01;96824.88;;;15.47;75.56
56894;BME280;43392;50.078;13.704;2023-06-19T04:30:29;96830.63;;;15.54;75.05
56894;BME280;43392;50.078;13.704;2023-06-19T04:32:57;96836.88;;;15.63;75.41
56894;BME280;43392;50.078;13.704;2023-06-19T04:35:23;96842.94;;;15.69;75.41
56894;BME280;43392;50.078;13.704;2023-06-19T04:37:50;96832.00;;;15.74;74.85
56894;BME280;43392;50.078;13.704;2023-06-19T04:40:17;96836.94;;;15.80;74.88
56894;BME280;43392;50.078;13.704;2023-06-19T04:42:43;96844.59;;;15.87;74.90
56894;BME280;43392;50.078;13.704;2023-06-19T04:45:10;96841.78;;;15.92;75.29
56894;BME280;43392;50.078;13.704;2023-06-19T04:47:37;96842.44;;;15.98;75.33
56894;BME280;43392;50.078;13.704;2023-06-19T04:50:07;96843.88;;;16.04;75.67
56894;BME280;43392;50.078;13.704;2023-06-19T04:52:34;96853.78;;;16.08;74.57
56894;BME280;43392;50.078;13.704;2023-06-19T04:55:00;96859.69;;;16.10;75.08
56894;BME280;43392;50.078;13.704;2023-06-19T04:57:27;96857.75;;;16.11;77.75
56894;BME280;43392;50.078;13.704;2023-06-19T04:59:53;96858.88;;;16.10;78.48
56894;BME280;43392;50.078;13.704;2023-06-19T05:02:20;96870.31;;;16.07;78.65
56894;BME280;43392;50.078;13.704;2023-06-19T05:04:49;96876.97;;;16.01;77.63
56894;BME280;43392;50.078;13.704;2023-06-19T05:07:17;96882.81;;;15.94;77.73
56894;BME280;43392;50.078;13.704;2023-06-19T05:09:43;96881.06;;;15.89;77.90
56894;BME280;43392;50.078;13.704;2023-06-19T05:12:11;96880.75;;;15.91;78.23
56894;BME280;43392;50.078;13.704;2023-06-19T05:14:37;96886.03;;;15.96;78.68
56894;BME280;43392;50.078;13.704;2023-06-19T05:17:05;96882.41;;;16.01;79.57
56894;BME280;43392;50.078;13.704;2023-06-19T05:19:31;96880.16;;;16.03;80.10
56894;BME280;43392;50.078;13.704;2023-06-19T05:21:58;96875.84;;;16.02;80.05
56894;BME280;43392;50.078;13.704;2023-06-19T05:24:26;96894.78;;;16.02;80.70
56894;BME280;43392;50.078;13.704;2023-06-19T05:26:53;96890.50;;;16.01;80.81
56894;BME280;43392;50.078;13.704;2023-06-19T05:29:19;96897.97;;;16.04;80.82
56894;BME280;43392;50.078;13.704;2023-06-19T05:31:46;96893.81;;;15.98;81.61
56894;BME280;43392;50.078;13.704;2023-06-19T05:34:13;96892.84;;;15.93;80.97
56894;BME280;43392;50.078;13.704;2023-06-19T05:36:39;96911.34;;;16.00;80.52
56894;BME280;43392;50.078;13.704;2023-06-19T05:39:06;96899.78;;;16.08;80.87
56894;BME280;43392;50.078;13.704;2023-06-19T05:41:34;96900.13;;;16.15;79.95
56894;BME280;43392;50.078;13.704;2023-06-19T05:44:01;96911.44;;;16.26;80.34
56894;BME280;43392;50.078;13.704;2023-06-19T05:46:27;96919.75;;;16.38;78.80
56894;BME280;43392;50.078;13.704;2023-06-19T05:48:54;96928.56;;;16.43;78.02
56894;BME280;43392;50.078;13.704;2023-06-19T05:51:20;96928.88;;;16.42;77.72
56894;BME280;43392;50.078;13.704;2023-06-19T05:53:47;96937.78;;;16.42;77.17
56894;BME280;43392;50.078;13.704;2023-06-19T05:56:15;96920.44;;;16.43;77.96
56894;BME280;43392;50.078;13.704;2023-06-19T05:58:43;96931.91;;;16.49;78.08
56894;BME280;43392;50.078;13.704;2023-06-19T06:01:10;96928.78;;;16.55;77.57
56894;BME280;43392;50.078;13.704;2023-06-19T06:03:37;96931.66;;;16.59;78.53
56894;BME280;43392;50.078;13.704;2023-06-19T06:06:04;96935.28;;;16.54;79.61
56894;BME280;43392;50.078;13.704;2023-06-19T06:08:31;96942.00;;;16.57;80.10
56894;BME280;43392;50.078;13.704;2023-06-19T06:10:58;96936.44;;;16.62;80.46
56894;BME280;43392;50.078;13.704;2023-06-19T06:13:24;96939.16;;;16.62;80.40
56894;BME280;43392;50.078;13.704;2023-06-19T06:15:52;96930.06;;;16.58;80.63
56894;BME280;43392;50.078;13.704;2023-06-19T06:18:19;96932.91;;;16.53;81.54
56894;BME280;43392;50.078;13.704;2023-06-19T06:20:46;96937.53;;;16.52;83.30
56894;BME280;43392;50.078;13.704;2023-06-19T06:23:12;96935.09;;;16.51;84.36
56894;BME280;43392;50.078;13.704;2023-06-19T06:25:39;96930.00;;;16.49;85.34
56894;BME280;43392;50.078;13.704;2023-06-19T06:28:06;96935.94;;;16.51;85.90
56894;BME280;43392;50.078;13.704;2023-06-19T06:30:32;96925.88;;;16.52;86.91
56894;BME280;43392;50.078;13.704;2023-06-19T06:33:00;96927.69;;;16.56;86.21
56894;BME280;43392;50.078;13.704;2023-06-19T06:35:27;96922.41;;;16.60;86.59
56894;BME280;43392;50.078;13.704;2023-06-19T06:37:54;96924.03;;;16.61;87.06
56894;BME280;43392;50.078;13.704;2023-06-19T06:40:20;96930.38;;;16.56;88.00
56894;BME280;43392;50.078;13.704;2023-06-19T06:42:47;96921.72;;;16.46;88.28
56894;BME280;43392;50.078;13.704;2023-06-19T06:45:14;96923.28;;;16.38;88.75
56894;BME280;43392;50.078;13.704;2023-06-19T06:47:41;96926.78;;;16.39;89.03
56894;BME280;43392;50.078;13.704;2023-06-19T06:50:09;96926.47;;;16.40;89.80
56894;BME280;43392;50.078;13.704;2023-06-19T06:52:36;96935.72;;;16.48;90.20
56894;BME280;43392;50.078;13.704;2023-06-19T06:55:04;96947.25;;;16.53;90.05
56894;BME280;43392;50.078;13.704;2023-06-19T06:57:31;96939.00;;;16.58;90.37
56894;BME280;43392;50.078;13.704;2023-06-19T06:59:57;96933.44;;;16.64;90.19
56894;BME280;43392;50.078;13.704;2023-06-19T07:02:24;96939.66;;;16.73;89.63
56894;BME280;43392;50.078;13.704;2023-06-19T07:04:50;96936.47;;;16.79;89.60
56894;BME280;43392;50.078;13.704;2023-06-19T07:07:19;96937.63;;;16.87;89.01
56894;BME280;43392;50.078;13.704;2023-06-19T07:09:46;96937.94;;;16.94;89.34
56894;BME280;43392;50.078;13.704;2023-06-19T07:12:12;96938.75;;;17.03;89.69
56894;BME280;43392;50.078;13.704;2023-06-19T07:14:39;96930.31;;;17.13;89.35
56894;BME280;43392;50.078;13.704;2023-06-19T07:17:06;96941.03;;;17.27;88.54
56894;BME280;43392;50.078;13.704;2023-06-19T07:19:32;96935.25;;;17.37;87.84
56894;BME280;43392;50.078;13.704;2023-06-19T07:21:59;96930.50;;;17.51;86.91
56894;BME280;43392;50.078;13.704;2023-06-19T07:24:27;96934.50;;;17.62;86.47
56894;BME280;43392;50.078;13.704;2023-06-19T07:26:54;96935.78;;;17.73;86.70
56894;BME280;43392;50.078;13.704;2023-06-19T07:29:21;96936.22;;;17.83;87.34
56894;BME280;43392;50.078;13.704;2023-06-19T07:31:48;96932.06;;;17.95;86.95
56894;BME280;43392;50.078;13.704;2023-06-19T07:34:15;96932.50;;;18.05;86.56
56894;BME280;43392;50.078;13.704;2023-06-19T07:36:41;96924.81;;;18.16;85.55
56894;BME280;43392;50.078;13.704;2023-06-19T07:39:08;96940.59;;;18.22;85.24
56894;BME280;43392;50.078;13.704;2023-06-19T07:41:36;96935.44;;;18.29;85.63
56894;BME280;43392;50.078;13.704;2023-06-19T07:44:03;96938.00;;;18.34;85.32
56894;BME280;43392;50.078;13.704;2023-06-19T07:46:30;96932.25;;;18.36;84.67
56894;BME280;43392;50.078;13.704;2023-06-19T07:48:57;96935.75;;;18.36;85.25
56894;BME280;43392;50.078;13.704;2023-06-19T07:51:23;96935.25;;;18.43;86.44
56894;BME280;43392;50.078;13.704;2023-06-19T07:53:50;96932.97;;;18.53;86.25
56894;BME280;43392;50.078;13.704;2023-06-19T07:56:17;96943.31;;;18.69;86.01
56894;BME280;43392;50.078;13.704;2023-06-19T07:58:45;96939.56;;;18.82;85.34
56894;BME280;43392;50.078;13.704;2023-06-19T08:01:12;96947.63;;;18.99;84.22
56894;BME280;43392;50.078;13.704;2023-06-19T08:03:38;96953.25;;;19.14;83.94
56894;BME280;43392;50.078;13.704;2023-06-19T08:06:05;96941.91;;;19.33;81.81
56894;BME280;43392;50.078;13.704;2023-06-19T08:08:32;96942.81;;;19.46;80.22
56894;BME280;43392;50.078;13.704;2023-06-19T08:10:58;96937.53;;;19.49;81.00
56894;BME280;43392;50.078;13.704;2023-06-19T08:13:25;96931.28;;;19.49;80.98
56894;BME280;43392;50.078;13.704;2023-06-19T08:15:53;96934.34;;;19.47;81.70
56894;BME280;43392;50.078;13.704;2023-06-19T08:18:19;96941.81;;;19.50;81.50
56894;BME280;43392;50.078;13.704;2023-06-19T08:20:46;96935.59;;;19.50;81.19
56894;BME280;43392;50.078;13.704;2023-06-19T08:23:13;96932.66;;;19.55;81.02
56894;BME280;43392;50.078;13.704;2023-06-19T08:25:39;96921.09;;;19.58;80.74
56894;BME280;43392;50.078;13.704;2023-06-19T08:28:06;96927.16;;;19.63;80.86
56894;BME280;43392;50.078;13.704;2023-06-19T08:30:33;96919.78;;;19.64;80.92
56894;BME280;43392;50.078;13.704;2023-06-19T08:33:01;96922.25;;;19.90;80.14
56894;BME280;43392;50.078;13.704;2023-06-19T08:35:28;96925.69;;;20.11;78.68
56894;BME280;43392;50.078;13.704;2023-06-19T08:37:55;96931.44;;;20.30;79.29
56894;BME280;43392;50.078;13.704;2023-06-19T08:40:22;96927.63;;;20.55;78.51
56894;BME280;43392;50.078;13.704;2023-06-19T08:42:48;96927.16;;;20.65;77.54
56894;BME280;43392;50.078;13.704;2023-06-19T08:45:17;96920.13;;;20.64;75.12
56894;BME280;43392;50.078;13.704;2023-06-19T08:47:46;96922.84;;;20.76;71.97
56894;BME280;43392;50.078;13.704;2023-06-19T08:50:14;96929.53;;;20.79;68.12
56894;BME280;43392;50.078;13.704;2023-06-19T08:52:41;96932.69;;;20.93;69.57
56894;BME280;43392;50.078;13.704;2023-06-19T08:55:08;96929.00;;;21.09;67.99
56894;BME280;43392;50.078;13.704;2023-06-19T08:57:37;96937.34;;;21.29;67.58
56894;BME280;43392;50.078;13.704;2023-06-19T09:00:05;96937.53;;;21.48;64.97
56894;BME280;43392;50.078;13.704;2023-06-19T09:02:37;96929.38;;;21.63;63.63
56894;BME280;43392;50.078;13.704;2023-06-19T09:05:16;96935.41;;;21.69;63.89
56894;BME280;43392;50.078;13.704;2023-06-19T09:07:43;96928.09;;;21.73;63.87
56894;BME280;43392;50.078;13.704;2023-06-19T09:10:15;96927.97;;;21.81;64.40
56894;BME280;43392;50.078;13.704;2023-06-19T09:12:42;96920.34;;;21.87;62.75
56894;BME280;43392;50.078;13.704;2023-06-19T09:15:12;96921.41;;;21.98;63.04
56894;BME280;43392;50.078;13.704;2023-06-19T09:17:39;96914.66;;;22.08;65.94
56894;BME280;43392;50.078;13.704;2023-06-19T09:20:07;96924.19;;;22.14;66.26
56894;BME280;43392;50.078;13.704;2023-06-19T09:22:38;96927.19;;;22.24;65.07
56894;BME280;43392;50.078;13.704;2023-06-19T09:25:06;96918.28;;;22.27;64.35
56894;BME280;43392;50.078;13.704;2023-06-19T09:27:35;96914.59;;;22.35;64.07
56894;BME280;43392;50.078;13.704;2023-06-19T09:30:02;96922.19;;;22.42;63.96
56894;BME280;43392;50.078;13.704;2023-06-19T09:32:31;96920.50;;;22.53;63.54
56894;BME280;43392;50.078;13.704;2023-06-19T09:34:58;96919.44;;;22.58;63.23
56894;BME280;43392;50.078;13.704;2023-06-19T09:37:26;96917.63;;;22.62;63.50
56894;BME280;43392;50.078;13.704;2023-06-19T09:39:55;96925.38;;;22.75;63.01
56894;BME280;43392;50.078;13.704;2023-06-19T09:42:27;96920.75;;;22.95;61.22
56894;BME280;43392;50.078;13.704;2023-06-19T09:44:59;96931.84;;;23.02;60.86
56894;BME280;43392;50.078;13.704;2023-06-19T09:47:30;96924.59;;;23.09;60.45
56894;BME280;43392;50.078;13.704;2023-06-19T09:49:57;96922.56;;;23.06;59.34
56894;BME280;43392;50.078;13.704;2023-06-19T09:52:24;96917.19;;;23.10;58.12
56894;BME280;43392;50.078;13.704;2023-06-19T09:54:51;96918.47;;;23.16;58.14
56894;BME280;43392;50.078;13.704;2023-06-19T09:57:20;96928.28;;;23.17;58.30
56894;BME280;43392;50.078;13.704;2023-06-19T09:59:48;96929.84;;;23.18;58.86
56894;BME280;43392;50.078;13.704;2023-06-19T10:02:16;96925.91;;;23.16;57.32
56894;BME280;43392;50.078;13.704;2023-06-19T10:04:45;96937.28;;;23.18;56.20
56894;BME280;43392;50.078;13.704;2023-06-19T10:07:15;96932.00;;;23.09;55.46
56894;BME280;43392;50.078;13.704;2023-06-19T10:09:55;96931.56;;;23.07;54.35
56894;BME280;43392;50.078;13.704;2023-06-19T10:12:34;96930.78;;;23.06;53.79
56894;BME280;43392;50.078;13.704;2023-06-19T10:15:12;96928.84;;;23.07;53.44
56894;BME280;43392;50.078;13.704;2023-06-19T10:17:44;96915.25;;;23.10;53.49
56894;BME280;43392;50.078;13.704;2023-06-19T10:20:26;96918.25;;;23.40;54.08
56894;BME280;43392;50.078;13.704;2023-06-19T10:23:00;96925.47;;;23.48;53.72
56894;BME280;43392;50.078;13.704;2023-06-19T10:25:31;96928.50;;;23.62;54.08
56894;BME280;43392;50.078;13.704;2023-06-19T10:27:59;96923.53;;;23.68;53.98
56894;BME280;43392;50.078;13.704;2023-06-19T10:30:26;96915.09;;;23.57;53.82
56894;BME280;43392;50.078;13.704;2023-06-19T10:32:54;96921.50;;;23.46;53.94
56894;BME280;43392;50.078;13.704;2023-06-19T10:35:21;96920.81;;;23.33;53.82
56894;BME280;43392;50.078;13.704;2023-06-19T10:37:49;96911.59;;;23.22;53.95
56894;BME280;43392;50.078;13.704;2023-06-19T10:40:16;96926.25;;;23.14;54.04
56894;BME280;43392;50.078;13.704;2023-06-19T10:42:44;96922.22;;;23.08;54.45
56894;BME280;43392;50.078;13.704;2023-06-19T10:45:13;96920.91;;;23.02;54.81
56894;BME280;43392;50.078;13.704;2023-06-19T10:47:41;96920.03;;;22.98;55.12
56894;BME280;43392;50.078;13.704;2023-06-19T10:50:11;96918.72;;;22.92;55.25
56894;BME280;43392;50.078;13.704;2023-06-19T10:52:43;96917.84;;;22.88;55.05
56894;BME280;43392;50.078;13.704;2023-06-19T10:55:10;96917.00;;;22.84;54.90
56894;BME280;43392;50.078;13.704;2023-06-19T10:57:37;96916.09;;;22.80;55.61
56894;BME280;43392;50.078;13.704;2023-06-19T11:00:06;96921.13;;;22.78;54.96
56894;BME280;43392;50.078;13.704;2023-06-19T11:02:39;96916.47;;;22.78;54.56
56894;BME280;43392;50.078;13.704;2023-06-19T11:05:08;96921.56;;;22.80;54.33
56894;BME280;43392;50.078;13.704;2023-06-19T11:07:35;96918.94;;;22.83;54.66
56894;BME280;43392;50.078;13.704;2023-06-19T11:10:02;96914.25;;;22.84;54.70
56894;BME280;43392;50.078;13.704;2023-06-19T11:12:28;96914.41;;;22.91;54.35
56894;BME280;43392;50.078;13.704;2023-06-19T11:14:55;96915.72;;;22.97;54.35
56894;BME280;43392;50.078;13.704;2023-06-19T11:17:22;96918.19;;;23.02;54.76
56894;BME280;43392;50.078;13.704;2023-06-19T11:19:51;96909.69;;;23.07;54.85
56894;BME280;43392;50.078;13.704;2023-06-19T11:22:17;96912.84;;;23.09;54.58
56894;BME280;43392;50.078;13.704;2023-06-19T11:24:44;96905.09;;;23.11;54.76
56894;BME280;43392;50.078;13.704;2023-06-19T11:27:19;96908.63;;;23.11;54.31
56894;BME280;43392;50.078;13.704;2023-06-19T11:29:55;96912.16;;;23.12;53.77
56894;BME280;43392;50.078;13.704;2023-06-19T11:32:21;96911.03;;;23.13;53.96
56894;BME280;43392;50.078;13.704;2023-06-19T11:34:53;96914.03;;;23.08;54.08
56894;BME280;43392;50.078;13.704;2023-06-19T11:37:19;96916.41;;;23.09;53.89
56894;BME280;43392;50.078;13.704;2023-06-19T11:39:48;96915.59;;;23.09;54.47
56894;BME280;43392;50.078;13.704;2023-06-19T11:42:16;96914.78;;;23.08;54.56
56894;BME280;43392;50.078;13.704;2023-06-19T11:44:53;96916.03;;;23.11;54.25
56894;BME280;43392;50.078;13.704;2023-06-19T11:47:20;96916.50;;;23.13;54.88
56894;BME280;43392;50.078;13.704;2023-06-19T11:49:47;96905.53;;;23.13;54.74
56894;BME280;43392;50.078;13.704;2023-06-19T11:52:16;96903.56;;;23.13;54.21
56894;BME280;43392;50.078;13.704;2023-06-19T11:54:42;96902.50;;;23.18;54.44
56894;BME280;43392;50.078;13.704;2023-06-19T11:57:09;96902.97;;;23.20;54.78
56894;BME280;43392;50.078;13.704;2023-06-19T11:59:37;96908.06;;;23.22;54.51
56894;BME280;43392;50.078;13.704;2023-06-19T12:02:04;96902.22;;;23.23;54.19
56894;BME280;43392;50.078;13.704;2023-06-19T12:04:31;96903.13;;;23.27;54.48
56894;BME280;43392;50.078;13.704;2023-06-19T12:06:58;96900.81;;;23.29;54.41
56894;BME280;43392;50.078;13.704;2023-06-19T12:09:26;96897.09;;;23.37;53.76
56894;BME280;43392;50.078;13.704;2023-06-19T12:11:53;96894.78;;;23.39;53.54
56894;BME280;43392;50.078;13.704;2023-06-19T12:14:19;96896.88;;;23.46;53.65
56894;BME280;43392;50.078;13.704;2023-06-19T12:16:46;96895.78;;;23.50;53.43
56894;BME280;43392;50.078;13.704;2023-06-19T12:19:13;96892.06;;;23.58;53.63
56894;BME280;43392;50.078;13.704;2023-06-19T12:21:39;96896.50;;;23.66;53.92
56894;BME280;43392;50.078;13.704;2023-06-19T12:24:06;96899.31;;;23.70;53.89
56894;BME280;43392;50.078;13.704;2023-06-19T12:26:35;96889.31;;;23.77;54.02
56894;BME280;43392;50.078;13.704;2023-06-19T12:29:02;96883.13;;;23.81;54.62
56894;BME280;43392;50.078;13.704;2023-06-19T12:31:29;96882.75;;;23.82;54.47
56894;BME280;43392;50.078;13.704;2023-06-19T12:33:56;96899.47;;;23.77;54.28
56894;BME280;43392;50.078;13.704;2023-06-19T12:36:23;96902.16;;;23.73;54.02
56894;BME280;43392;50.078;13.704;2023-06-19T12:38:52;96898.25;;;23.74;54.62
56894;BME280;43392;50.078;13.704;2023-06-19T12:41:19;96889.59;;;23.72;54.27
56894;BME280;43392;50.078;13.704;2023-06-19T12:43:47;96884.97;;;23.76;54.40
56894;BME280;43392;50.078;13.704;2023-06-19T12:46:13;96888.63;;;23.84;54.83
56894;BME280;43392;50.078;13.704;2023-06-19T12:48:41;96880.50;;;23.88;54.84
56894;BME280;43392;50.078;13.704;2023-06-19T12:51:07;96883.44;;;23.98;54.97
56894;BME280;43392;50.078;13.704;2023-06-19T12:53:34;96875.72;;;24.04;54.59